sensor_id;sensor_type;location;lat;lon;timestamp;P1;durP1;ratioP1;P2;durP2;ratioP2
795;SDS011;381;48.770;9.188;2022-09-03T00:00:06;3.53;;;3.23;;
795;SDS011;381;48.770;9.188;2022-09-03T00:05:15;3.10;;;2.90;;
795;SDS011;381;48.770;9.188;2022-09-03T00:10:21;3.10;;;2.90;;
795;SDS011;381;48.770;9.188;2022-09-03T00:15:29;3.20;;;3.00;;
795;SDS011;381;48.770;9.188;2022-09-03T00:20:38;4.70;;;3.77;;
795;SDS011;381;48.770;9.188;2022-09-03T00:25:44;3.70;;;3.50;;
795;SDS011;381;48.770;9.188;2022-09-03T00:30:55;3.87;;;3.17;;
795;SDS011;381;48.770;9.188;2022-09-03T00:36:10;3.10;;;3.00;;
795;SDS011;381;48.770;9.188;2022-09-03T00:41:19;3.80;;;3.50;;
795;SDS011;381;48.770;9.188;2022-09-03T00:46:32;3.40;;;3.20;;
795;SDS011;381;48.770;9.188;2022-09-03T00:51:43;3.40;;;3.20;;
795;SDS011;381;48.770;9.188;2022-09-03T00:56:58;3.13;;;3.03;;
795;SDS011;381;48.770;9.188;2022-09-03T01:02:11;3.00;;;2.87;;
795;SDS011;381;48.770;9.188;2022-09-03T01:07:25;6.93;;;3.00;;
795;SDS011;381;48.770;9.188;2022-09-03T01:12:37;2.60;;;2.50;;
795;SDS011;381;48.770;9.188;2022-09-03T01:17:53;7.67;;;3.13;;
795;SDS011;381;48.770;9.188;2022-09-03T01:23:23;2.77;;;2.67;;
795;SDS011;381;48.770;9.188;2022-09-03T01:28:49;2.60;;;2.50;;
795;SDS011;381;48.770;9.188;2022-09-03T01:34:05;3.53;;;2.70;;
795;SDS011;381;48.770;9.188;2022-09-03T01:39:16;3.07;;;2.83;;
795;SDS011;381;48.770;9.188;2022-09-03T01:44:30;3.13;;;2.93;;
795;SDS011;381;48.770;9.188;2022-09-03T01:49:42;2.70;;;2.60;;
795;SDS011;381;48.770;9.188;2022-09-03T01:54:50;2.53;;;2.33;;
795;SDS011;381;48.770;9.188;2022-09-03T02:00:04;4.97;;;2.57;;
795;SDS011;381;48.770;9.188;2022-09-03T02:05:13;3.23;;;3.03;;
795;SDS011;381;48.770;9.188;2022-09-03T02:10:19;3.00;;;2.80;;
795;SDS011;381;48.770;9.188;2022-09-03T02:15:25;3.03;;;2.73;;
795;SDS011;381;48.770;9.188;2022-09-03T02:20:30;2.53;;;2.43;;
795;SDS011;381;48.770;9.188;2022-09-03T02:25:34;2.93;;;2.83;;
795;SDS011;381;48.770;9.188;2022-09-03T02:30:41;2.97;;;2.80;;
795;SDS011;381;48.770;9.188;2022-09-03T02:35:43;3.00;;;2.80;;
795;SDS011;381;48.770;9.188;2022-09-03T02:40:46;6.13;;;3.40;;
795;SDS011;381;48.770;9.188;2022-09-03T02:45:51;3.30;;;3.10;;
795;SDS011;381;48.770;9.188;2022-09-03T02:50:57;5.23;;;2.97;;
795;SDS011;381;48.770;9.188;2022-09-03T02:55:59;3.10;;;3.00;;
795;SDS011;381;48.770;9.188;2022-09-03T03:01:03;3.50;;;3.30;;
795;SDS011;381;48.770;9.188;2022-09-03T03:06:06;3.40;;;3.10;;
795;SDS011;381;48.770;9.188;2022-09-03T03:11:09;3.17;;;3.07;;
795;SDS011;381;48.770;9.188;2022-09-03T03:16:12;3.30;;;2.80;;
795;SDS011;381;48.770;9.188;2022-09-03T03:21:16;3.80;;;3.17;;
795;SDS011;381;48.770;9.188;2022-09-03T03:26:20;3.40;;;3.20;;
795;SDS011;381;48.770;9.188;2022-09-03T03:31:24;3.70;;;3.50;;
795;SDS011;381;48.770;9.188;2022-09-03T03:36:28;3.37;;;3.17;;
795;SDS011;381;48.770;9.188;2022-09-03T03:41:33;3.77;;;3.57;;
795;SDS011;381;48.770;9.188;2022-09-03T03:46:39;4.30;;;3.70;;
795;SDS011;381;48.770;9.188;2022-09-03T03:51:42;4.70;;;3.33;;
795;SDS011;381;48.770;9.188;2022-09-03T03:56:44;3.37;;;2.97;;
795;SDS011;381;48.770;9.188;2022-09-03T04:01:47;3.53;;;3.30;;
795;SDS011;381;48.770;9.188;2022-09-03T04:06:50;4.30;;;3.90;;
795;SDS011;381;48.770;9.188;2022-09-03T04:11:52;3.57;;;3.37;;
795;SDS011;381;48.770;9.188;2022-09-03T04:16:58;3.43;;;3.23;;
795;SDS011;381;48.770;9.188;2022-09-03T04:22:00;3.30;;;3.10;;
795;SDS011;381;48.770;9.188;2022-09-03T04:27:03;3.83;;;3.63;;
795;SDS011;381;48.770;9.188;2022-09-03T04:32:06;3.80;;;3.60;;
795;SDS011;381;48.770;9.188;2022-09-03T04:37:26;3.77;;;3.43;;
795;SDS011;381;48.770;9.188;2022-09-03T04:42:28;3.50;;;3.30;;
795;SDS011;381;48.770;9.188;2022-09-03T04:47:31;4.43;;;3.67;;
795;SDS011;381;48.770;9.188;2022-09-03T04:52:35;3.67;;;3.37;;
795;SDS011;381;48.770;9.188;2022-09-03T04:57:37;4.00;;;3.70;;
795;SDS011;381;48.770;9.188;2022-09-03T05:02:43;4.00;;;3.80;;
795;SDS011;381;48.770;9.188;2022-09-03T05:07:47;4.10;;;3.90;;
795;SDS011;381;48.770;9.188;2022-09-03T05:12:56;3.50;;;3.40;;
795;SDS011;381;48.770;9.188;2022-09-03T05:18:02;4.10;;;3.80;;
795;SDS011;381;48.770;9.188;2022-09-03T05:23:04;3.80;;;3.47;;
795;SDS011;381;48.770;9.188;2022-09-03T05:28:06;4.00;;;3.70;;
795;SDS011;381;48.770;9.188;2022-09-03T05:33:10;4.70;;;4.00;;
795;SDS011;381;48.770;9.188;2022-09-03T05:38:15;4.83;;;4.27;;
795;SDS011;381;48.770;9.188;2022-09-03T05:43:17;3.93;;;3.63;;
795;SDS011;381;48.770;9.188;2022-09-03T05:48:21;4.87;;;4.20;;
795;SDS011;381;48.770;9.188;2022-09-03T05:53:23;4.17;;;3.97;;
795;SDS011;381;48.770;9.188;2022-09-03T05:58:29;3.60;;;3.40;;
795;SDS011;381;48.770;9.188;2022-09-03T06:03:32;4.90;;;4.40;;
795;SDS011;381;48.770;9.188;2022-09-03T06:08:34;3.70;;;3.50;;
795;SDS011;381;48.770;9.188;2022-09-03T06:13:38;4.60;;;4.40;;
795;SDS011;381;48.770;9.188;2022-09-03T06:18:41;4.43;;;4.13;;
795;SDS011;381;48.770;9.188;2022-09-03T06:23:47;4.70;;;4.50;;
795;SDS011;381;48.770;9.188;2022-09-03T06:28:52;4.47;;;4.00;;
795;SDS011;381;48.770;9.188;2022-09-03T06:33:56;5.00;;;4.70;;
795;SDS011;381;48.770;9.188;2022-09-03T06:38:59;4.80;;;4.50;;
795;SDS011;381;48.770;9.188;2022-09-03T06:44:02;4.90;;;4.60;;
795;SDS011;381;48.770;9.188;2022-09-03T06:49:07;5.00;;;4.70;;
795;SDS011;381;48.770;9.188;2022-09-03T06:54:11;4.30;;;4.10;;
795;SDS011;381;48.770;9.188;2022-09-03T06:59:15;5.13;;;4.63;;
795;SDS011;381;48.770;9.188;2022-09-03T07:04:18;6.13;;;4.27;;
795;SDS011;381;48.770;9.188;2022-09-03T07:09:24;4.90;;;4.53;;
795;SDS011;381;48.770;9.188;2022-09-03T07:14:26;4.40;;;4.00;;
795;SDS011;381;48.770;9.188;2022-09-03T07:19:30;4.40;;;4.20;;
795;SDS011;381;48.770;9.188;2022-09-03T07:24:32;5.63;;;5.17;;
795;SDS011;381;48.770;9.188;2022-09-03T07:29:35;5.33;;;5.00;;
795;SDS011;381;48.770;9.188;2022-09-03T07:34:38;5.07;;;4.77;;
795;SDS011;381;48.770;9.188;2022-09-03T07:39:40;5.93;;;5.63;;
795;SDS011;381;48.770;9.188;2022-09-03T07:44:43;5.77;;;5.37;;
795;SDS011;381;48.770;9.188;2022-09-03T07:49:46;5.40;;;5.10;;
795;SDS011;381;48.770;9.188;2022-09-03T07:54:49;4.37;;;4.07;;
795;SDS011;381;48.770;9.188;2022-09-03T07:59:51;5.20;;;4.73;;
795;SDS011;381;48.770;9.188;2022-09-03T08:04:54;5.50;;;5.20;;
795;SDS011;381;48.770;9.188;2022-09-03T08:09:56;5.07;;;4.77;;
795;SDS011;381;48.770;9.188;2022-09-03T08:14:58;5.73;;;4.67;;
795;SDS011;381;48.770;9.188;2022-09-03T08:20:03;5.60;;;5.30;;
795;SDS011;381;48.770;9.188;2022-09-03T08:25:05;5.87;;;5.57;;
795;SDS011;381;48.770;9.188;2022-09-03T08:30:08;5.70;;;5.20;;
795;SDS011;381;48.770;9.188;2022-09-03T08:35:13;5.57;;;5.27;;
795;SDS011;381;48.770;9.188;2022-09-03T08:40:15;5.43;;;5.13;;
795;SDS011;381;48.770;9.188;2022-09-03T08:45:18;5.83;;;5.37;;
795;SDS011;381;48.770;9.188;2022-09-03T08:50:25;6.00;;;4.87;;
795;SDS011;381;48.770;9.188;2022-09-03T08:55:30;4.90;;;4.50;;
795;SDS011;381;48.770;9.188;2022-09-03T09:00:46;5.70;;;5.40;;
795;SDS011;381;48.770;9.188;2022-09-03T09:05:53;5.63;;;5.10;;
795;SDS011;381;48.770;9.188;2022-09-03T09:11:00;5.10;;;4.80;;
795;SDS011;381;48.770;9.188;2022-09-03T09:16:09;6.10;;;5.50;;
795;SDS011;381;48.770;9.188;2022-09-03T09:21:22;5.30;;;4.90;;
795;SDS011;381;48.770;9.188;2022-09-03T09:26:27;9.90;;;5.27;;
795;SDS011;381;48.770;9.188;2022-09-03T09:31:30;5.80;;;5.47;;
795;SDS011;381;48.770;9.188;2022-09-03T09:36:36;6.50;;;6.00;;
795;SDS011;381;48.770;9.188;2022-09-03T09:41:58;12.07;;;5.90;;
795;SDS011;381;48.770;9.188;2022-09-03T09:47:02;6.37;;;5.83;;
795;SDS011;381;48.770;9.188;2022-09-03T09:52:09;5.83;;;4.73;;
795;SDS011;381;48.770;9.188;2022-09-03T09:57:13;6.30;;;5.90;;
795;SDS011;381;48.770;9.188;2022-09-03T10:02:19;5.90;;;5.50;;
795;SDS011;381;48.770;9.188;2022-09-03T10:07:28;4.37;;;4.10;;
795;SDS011;381;48.770;9.188;2022-09-03T10:12:33;5.33;;;5.03;;
795;SDS011;381;48.770;9.188;2022-09-03T10:17:44;5.13;;;4.83;;
795;SDS011;381;48.770;9.188;2022-09-03T10:22:54;5.00;;;4.80;;
795;SDS011;381;48.770;9.188;2022-09-03T10:27:57;4.80;;;4.50;;
795;SDS011;381;48.770;9.188;2022-09-03T10:33:03;5.70;;;5.40;;
795;SDS011;381;48.770;9.188;2022-09-03T10:38:16;6.40;;;6.00;;
795;SDS011;381;48.770;9.188;2022-09-03T10:43:28;6.93;;;6.53;;
795;SDS011;381;48.770;9.188;2022-09-03T10:48:47;4.87;;;4.57;;
795;SDS011;381;48.770;9.188;2022-09-03T10:59:45;6.30;;;5.90;;
795;SDS011;381;48.770;9.188;2022-09-03T11:04:59;6.60;;;6.20;;
795;SDS011;381;48.770;9.188;2022-09-03T11:10:11;4.97;;;4.43;;
795;SDS011;381;48.770;9.188;2022-09-03T11:15:20;5.80;;;5.50;;
795;SDS011;381;48.770;9.188;2022-09-03T11:20:26;5.70;;;5.20;;
795;SDS011;381;48.770;9.188;2022-09-03T11:25:31;5.20;;;4.67;;
795;SDS011;381;48.770;9.188;2022-09-03T11:30:38;6.73;;;3.80;;
795;SDS011;381;48.770;9.188;2022-09-03T11:35:53;5.87;;;5.50;;
795;SDS011;381;48.770;9.188;2022-09-03T11:40:59;5.73;;;5.40;;
795;SDS011;381;48.770;9.188;2022-09-03T11:46:05;4.90;;;4.63;;
795;SDS011;381;48.770;9.188;2022-09-03T11:51:29;5.53;;;5.20;;
795;SDS011;381;48.770;9.188;2022-09-03T11:56:36;5.17;;;4.87;;
795;SDS011;381;48.770;9.188;2022-09-03T12:01:38;6.07;;;5.57;;
795;SDS011;381;48.770;9.188;2022-09-03T12:06:48;6.40;;;6.00;;
795;SDS011;381;48.770;9.188;2022-09-03T12:12:05;5.40;;;5.10;;
795;SDS011;381;48.770;9.188;2022-09-03T12:17:17;6.50;;;6.00;;
795;SDS011;381;48.770;9.188;2022-09-03T12:22:28;6.37;;;5.90;;
795;SDS011;381;48.770;9.188;2022-09-03T12:27:32;10.17;;;9.40;;
795;SDS011;381;48.770;9.188;2022-09-03T12:32:34;7.53;;;6.63;;
795;SDS011;381;48.770;9.188;2022-09-03T12:37:37;6.03;;;5.63;;
795;SDS011;381;48.770;9.188;2022-09-03T12:42:43;5.50;;;5.10;;
795;SDS011;381;48.770;9.188;2022-09-03T12:47:45;4.43;;;4.13;;
795;SDS011;381;48.770;9.188;2022-09-03T12:52:48;4.10;;;2.80;;
795;SDS011;381;48.770;9.188;2022-09-03T12:57:54;4.90;;;4.60;;
795;SDS011;381;48.770;9.188;2022-09-03T13:03:03;4.87;;;4.50;;
795;SDS011;381;48.770;9.188;2022-09-03T13:08:07;7.50;;;6.80;;
795;SDS011;381;48.770;9.188;2022-09-03T13:13:18;8.30;;;7.90;;
795;SDS011;381;48.770;9.188;2022-09-03T13:18:24;7.53;;;6.70;;
795;SDS011;381;48.770;9.188;2022-09-03T13:23:36;12.17;;;11.57;;
795;SDS011;381;48.770;9.188;2022-09-03T13:28:58;12.37;;;11.70;;
795;SDS011;381;48.770;9.188;2022-09-03T13:34:23;14.07;;;13.33;;
795;SDS011;381;48.770;9.188;2022-09-03T13:39:32;14.80;;;14.10;;
795;SDS011;381;48.770;9.188;2022-09-03T13:44:42;13.70;;;12.90;;
795;SDS011;381;48.770;9.188;2022-09-03T13:49:50;12.93;;;12.33;;
795;SDS011;381;48.770;9.188;2022-09-03T13:55:13;9.60;;;9.00;;
795;SDS011;381;48.770;9.188;2022-09-03T14:00:24;7.33;;;7.03;;
795;SDS011;381;48.770;9.188;2022-09-03T14:05:33;7.63;;;7.10;;
795;SDS011;381;48.770;9.188;2022-09-03T14:10:57;8.60;;;8.10;;
795;SDS011;381;48.770;9.188;2022-09-03T14:16:06;6.60;;;6.30;;
795;SDS011;381;48.770;9.188;2022-09-03T14:21:15;6.23;;;5.93;;
795;SDS011;381;48.770;9.188;2022-09-03T14:26:23;7.43;;;6.83;;
795;SDS011;381;48.770;9.188;2022-09-03T14:31:40;6.40;;;6.10;;
795;SDS011;381;48.770;9.188;2022-09-03T14:37:00;6.70;;;6.40;;
795;SDS011;381;48.770;9.188;2022-09-03T14:47:49;6.03;;;5.73;;
795;SDS011;381;48.770;9.188;2022-09-03T14:53:18;4.37;;;4.17;;
795;SDS011;381;48.770;9.188;2022-09-03T14:58:35;5.43;;;5.23;;
795;SDS011;381;48.770;9.188;2022-09-03T15:03:56;5.40;;;5.10;;
795;SDS011;381;48.770;9.188;2022-09-03T15:09:27;3.37;;;3.17;;
795;SDS011;381;48.770;9.188;2022-09-03T15:14:34;4.40;;;4.20;;
795;SDS011;381;48.770;9.188;2022-09-03T15:19:47;4.20;;;4.00;;
795;SDS011;381;48.770;9.188;2022-09-03T15:25:02;4.80;;;4.60;;
795;SDS011;381;48.770;9.188;2022-09-03T15:30:14;4.77;;;4.57;;
795;SDS011;381;48.770;9.188;2022-09-03T15:35:30;10.03;;;9.23;;
795;SDS011;381;48.770;9.188;2022-09-03T15:40:47;4.60;;;4.40;;
795;SDS011;381;48.770;9.188;2022-09-03T15:45:52;4.27;;;4.07;;
795;SDS011;381;48.770;9.188;2022-09-03T15:51:08;5.53;;;5.20;;
795;SDS011;381;48.770;9.188;2022-09-03T16:08:51;4.53;;;4.20;;
795;SDS011;381;48.770;9.188;2022-09-03T16:14:00;5.93;;;5.33;;
795;SDS011;381;48.770;9.188;2022-09-03T16:19:09;4.87;;;4.57;;
795;SDS011;381;48.770;9.188;2022-09-03T16:24:20;4.80;;;4.50;;
795;SDS011;381;48.770;9.188;2022-09-03T16:29:25;4.00;;;3.80;;
795;SDS011;381;48.770;9.188;2022-09-03T16:34:32;5.80;;;5.50;;
795;SDS011;381;48.770;9.188;2022-09-03T16:39:44;6.47;;;5.97;;
795;SDS011;381;48.770;9.188;2022-09-03T16:44:57;5.87;;;5.57;;
795;SDS011;381;48.770;9.188;2022-09-03T16:50:19;6.20;;;5.80;;
795;SDS011;381;48.770;9.188;2022-09-03T16:55:32;5.77;;;5.47;;
795;SDS011;381;48.770;9.188;2022-09-03T17:00:53;6.70;;;6.20;;
795;SDS011;381;48.770;9.188;2022-09-03T17:06:15;6.60;;;6.10;;
795;SDS011;381;48.770;9.188;2022-09-03T17:11:41;5.10;;;4.80;;
795;SDS011;381;48.770;9.188;2022-09-03T17:16:54;5.57;;;5.17;;
795;SDS011;381;48.770;9.188;2022-09-03T17:22:10;5.47;;;5.17;;
795;SDS011;381;48.770;9.188;2022-09-03T17:27:31;5.57;;;5.17;;
795;SDS011;381;48.770;9.188;2022-09-03T17:33:02;5.20;;;5.00;;
795;SDS011;381;48.770;9.188;2022-09-03T17:38:29;5.43;;;5.03;;
795;SDS011;381;48.770;9.188;2022-09-03T17:43:52;4.93;;;4.63;;
795;SDS011;381;48.770;9.188;2022-09-03T17:49:00;3.70;;;3.50;;
795;SDS011;381;48.770;9.188;2022-09-03T17:54:07;4.43;;;4.17;;
795;SDS011;381;48.770;9.188;2022-09-03T17:59:20;5.10;;;4.80;;
795;SDS011;381;48.770;9.188;2022-09-03T18:04:40;15.40;;;13.80;;
795;SDS011;381;48.770;9.188;2022-09-03T18:09:49;5.90;;;5.50;;
795;SDS011;381;48.770;9.188;2022-09-03T18:15:03;7.80;;;7.10;;
795;SDS011;381;48.770;9.188;2022-09-03T18:20:13;5.80;;;5.40;;
795;SDS011;381;48.770;9.188;2022-09-03T18:25:34;4.70;;;4.40;;
795;SDS011;381;48.770;9.188;2022-09-03T18:30:57;4.67;;;4.37;;
795;SDS011;381;48.770;9.188;2022-09-03T18:36:17;4.93;;;4.53;;
795;SDS011;381;48.770;9.188;2022-09-03T18:41:44;3.73;;;3.43;;
795;SDS011;381;48.770;9.188;2022-09-03T18:47:17;4.50;;;4.20;;
795;SDS011;381;48.770;9.188;2022-09-03T18:52:49;4.77;;;4.47;;
795;SDS011;381;48.770;9.188;2022-09-03T18:58:14;3.60;;;3.40;;
795;SDS011;381;48.770;9.188;2022-09-03T19:03:47;5.27;;;4.90;;
795;SDS011;381;48.770;9.188;2022-09-03T19:09:16;4.63;;;4.30;;
795;SDS011;381;48.770;9.188;2022-09-03T19:14:47;4.40;;;4.20;;
795;SDS011;381;48.770;9.188;2022-09-03T19:20:13;4.70;;;4.40;;
795;SDS011;381;48.770;9.188;2022-09-03T19:25:39;5.17;;;4.97;;
795;SDS011;381;48.770;9.188;2022-09-03T19:36:46;5.40;;;4.93;;
795;SDS011;381;48.770;9.188;2022-09-03T19:42:13;5.30;;;5.00;;
795;SDS011;381;48.770;9.188;2022-09-03T19:47:43;4.70;;;4.30;;
795;SDS011;381;48.770;9.188;2022-09-03T19:53:10;4.27;;;4.07;;
795;SDS011;381;48.770;9.188;2022-09-03T19:58:34;4.20;;;4.00;;
795;SDS011;381;48.770;9.188;2022-09-03T20:03:57;4.57;;;4.13;;
795;SDS011;381;48.770;9.188;2022-09-03T20:09:28;4.13;;;3.93;;
795;SDS011;381;48.770;9.188;2022-09-03T20:14:51;4.70;;;4.50;;
795;SDS011;381;48.770;9.188;2022-09-03T20:19:57;5.00;;;4.50;;
795;SDS011;381;48.770;9.188;2022-09-03T20:25:22;4.60;;;4.30;;
795;SDS011;381;48.770;9.188;2022-09-03T20:30:44;4.50;;;4.20;;
795;SDS011;381;48.770;9.188;2022-09-03T20:35:53;4.60;;;4.40;;
795;SDS011;381;48.770;9.188;2022-09-03T20:41:06;4.57;;;4.20;;
795;SDS011;381;48.770;9.188;2022-09-03T20:46:19;5.00;;;4.60;;
795;SDS011;381;48.770;9.188;2022-09-03T20:51:35;6.33;;;5.03;;
795;SDS011;381;48.770;9.188;2022-09-03T20:57:08;27.40;;;24.90;;
795;SDS011;381;48.770;9.188;2022-09-03T21:02:25;6.60;;;6.10;;
795;SDS011;381;48.770;9.188;2022-09-03T21:07:33;6.00;;;5.60;;
795;SDS011;381;48.770;9.188;2022-09-03T21:12:49;5.40;;;5.00;;
795;SDS011;381;48.770;9.188;2022-09-03T21:18:02;4.73;;;4.33;;
795;SDS011;381;48.770;9.188;2022-09-03T21:23:12;4.97;;;4.67;;
795;SDS011;381;48.770;9.188;2022-09-03T21:28:23;5.33;;;4.93;;
795;SDS011;381;48.770;9.188;2022-09-03T21:33:31;5.77;;;5.40;;
795;SDS011;381;48.770;9.188;2022-09-03T21:38:38;7.40;;;6.77;;
795;SDS011;381;48.770;9.188;2022-09-03T21:43:46;5.53;;;5.23;;
795;SDS011;381;48.770;9.188;2022-09-03T21:48:54;5.33;;;5.03;;
795;SDS011;381;48.770;9.188;2022-09-03T21:54:00;5.10;;;4.90;;
795;SDS011;381;48.770;9.188;2022-09-03T21:59:08;16.20;;;14.90;;
795;SDS011;381;48.770;9.188;2022-09-03T22:04:18;13.40;;;12.23;;
795;SDS011;381;48.770;9.188;2022-09-03T22:09:23;13.07;;;12.27;;
795;SDS011;381;48.770;9.188;2022-09-03T22:14:34;13.00;;;11.80;;
795;SDS011;381;48.770;9.188;2022-09-03T22:19:40;12.50;;;11.80;;
795;SDS011;381;48.770;9.188;2022-09-03T22:24:47;12.77;;;12.07;;
795;SDS011;381;48.770;9.188;2022-09-03T22:29:58;11.23;;;10.63;;
795;SDS011;381;48.770;9.188;2022-09-03T22:35:14;10.33;;;9.90;;
795;SDS011;381;48.770;9.188;2022-09-03T22:40:27;12.03;;;11.40;;
795;SDS011;381;48.770;9.188;2022-09-03T22:45:43;12.27;;;11.67;;
795;SDS011;381;48.770;9.188;2022-09-03T22:50:54;12.17;;;11.57;;
795;SDS011;381;48.770;9.188;2022-09-03T22:55:59;11.10;;;10.37;;
795;SDS011;381;48.770;9.188;2022-09-03T23:01:09;11.00;;;10.30;;
795;SDS011;381;48.770;9.188;2022-09-03T23:06:19;9.83;;;9.33;;
795;SDS011;381;48.770;9.188;2022-09-03T23:11:28;11.30;;;10.60;;
795;SDS011;381;48.770;9.188;2022-09-03T23:16:35;9.80;;;9.00;;
795;SDS011;381;48.770;9.188;2022-09-03T23:21:44;10.30;;;9.70;;
795;SDS011;381;48.770;9.188;2022-09-03T23:26:51;8.40;;;8.00;;
795;SDS011;381;48.770;9.188;2022-09-03T23:31:56;9.17;;;8.77;;
795;SDS011;381;48.770;9.188;2022-09-03T23:37:03;10.20;;;9.60;;
795;SDS011;381;48.770;9.188;2022-09-03T23:42:15;10.30;;;9.80;;
795;SDS011;381;48.770;9.188;2022-09-03T23:47:32;9.77;;;9.17;;
795;SDS011;381;48.770;9.188;2022-09-03T23:52:45;9.30;;;8.87;;
795;SDS011;381;48.770;9.188;2022-09-03T23:57:58;9.10;;;8.60;;
